sensor_id;sensor_type;location;lat;lon;timestamp;pressure;altitude;pressure_sealevel;temperature;humidity
62418;BME280;48456;54.242;10.280;2023-03-18T00:01:41;100550.56;;;7.60;100.00
62418;BME280;48456;54.242;10.280;2023-03-18T00:04:07;100549.69;;;7.62;100.00
62418;BME280;48456;54.242;10.280;2023-03-18T00:06:35;100560.22;;;7.62;100.00
62418;BME280;48456;54.242;10.280;2023-03-18T00:09:03;100561.13;;;7.63;100.00
62418;BME280;48456;54.242;10.280;2023-03-18T00:11:30;100562.88;;;7.62;100.00
62418;BME280;48456;54.242;10.280;2023-03-18T00:13:57;100566.41;;;7.64;100.00
62418;BME280;48456;54.242;10.280;2023-03-18T00:16:23;100560.28;;;7.69;100.00
62418;BME280;48456;54.242;10.280;2023-03-18T00:18:49;100565.56;;;7.73;100.00
62418;BME280;48456;54.242;10.280;2023-03-18T00:21:16;100559.41;;;7.77;100.00
62418;BME280;48456;54.242;10.280;2023-03-18T00:23:42;100561.19;;;7.78;100.00
62418;BME280;48456;54.242;10.280;2023-03-18T00:26:09;100564.69;;;7.74;100.00
62418;BME280;48456;54.242;10.280;2023-03-18T00:28:35;100556.75;;;7.70;100.00
62418;BME280;48456;54.242;10.280;2023-03-18T00:31:03;100560.28;;;7.70;100.00
62418;BME280;48456;54.242;10.280;2023-03-18T00:33:30;100555.88;;;7.72;100.00
62418;BME280;48456;54.242;10.280;2023-03-18T00:35:57;100564.66;;;7.70;100.00
62418;BME280;48456;54.242;10.280;2023-03-18T00:38:23;100554.13;;;7.70;100.00
62418;BME280;48456;54.242;10.280;2023-03-18T00:40:50;100559.38;;;7.70;100.00
62418;BME280;48456;54.242;10.280;2023-03-18T00:43:29;100551.50;;;7.70;100.00
62418;BME280;48456;54.242;10.280;2023-03-18T00:46:04;100553.22;;;7.60;100.00
62418;BME280;48456;54.242;10.280;2023-03-18T00:48:31;100552.28;;;7.47;100.00
62418;BME280;48456;54.242;10.280;2023-03-18T00:50:57;100551.34;;;7.34;100.00
62418;BME280;48456;54.242;10.280;2023-03-18T00:53:23;100548.69;;;7.29;100.00
62418;BME280;48456;54.242;10.280;2023-03-18T00:55:51;100548.69;;;7.32;100.00
62418;BME280;48456;54.242;10.280;2023-03-18T00:58:18;100550.47;;;7.33;100.00
62418;BME280;48456;54.242;10.280;2023-03-18T01:00:44;100547.84;;;7.36;100.00
62418;BME280;48456;54.242;10.280;2023-03-18T01:03:11;100562.81;;;7.47;100.00
62418;BME280;48456;54.242;10.280;2023-03-18T01:05:39;100554.06;;;7.51;100.00
62418;BME280;48456;54.242;10.280;2023-03-18T01:08:05;100543.53;;;7.49;100.00
62418;BME280;48456;54.242;10.280;2023-03-18T01:10:31;100547.91;;;7.44;100.00
62418;BME280;48456;54.242;10.280;2023-03-18T01:12:59;100554.00;;;7.37;100.00
62418;BME280;48456;54.242;10.280;2023-03-18T01:15:25;100546.06;;;7.26;100.00
62418;BME280;48456;54.242;10.280;2023-03-18T01:17:52;100540.72;;;7.15;100.00
62418;BME280;48456;54.242;10.280;2023-03-18T01:20:22;100554.72;;;7.08;100.00
62418;BME280;48456;54.242;10.280;2023-03-18T01:22:49;100554.69;;;7.03;100.00
62418;BME280;48456;54.242;10.280;2023-03-18T01:25:16;100556.44;;;7.01;100.00
62418;BME280;48456;54.242;10.280;2023-03-18T01:27:43;100547.66;;;6.99;100.00
62418;BME280;48456;54.242;10.280;2023-03-18T01:30:09;100550.28;;;6.99;100.00
62418;BME280;48456;54.242;10.280;2023-03-18T01:32:36;100557.28;;;6.97;100.00
62418;BME280;48456;54.242;10.280;2023-03-18T01:35:03;100559.03;;;6.99;100.00
62418;BME280;48456;54.242;10.280;2023-03-18T01:37:29;100551.22;;;7.10;100.00
62418;BME280;48456;54.242;10.280;2023-03-18T01:39:56;100550.41;;;7.21;100.00
62418;BME280;48456;54.242;10.280;2023-03-18T01:42:23;100553.91;;;7.21;100.00
62418;BME280;48456;54.242;10.280;2023-03-18T01:45:08;100543.41;;;7.24;100.00
62418;BME280;48456;54.242;10.280;2023-03-18T01:47:35;100540.75;;;7.20;100.00
62418;BME280;48456;54.242;10.280;2023-03-18T01:50:01;100545.13;;;7.16;100.00
62418;BME280;48456;54.242;10.280;2023-03-18T01:52:28;100531.09;;;7.14;100.00
62418;BME280;48456;54.242;10.280;2023-03-18T01:54:58;100551.25;;;7.13;100.00
62418;BME280;48456;54.242;10.280;2023-03-18T01:57:25;100540.75;;;7.17;100.00
62418;BME280;48456;54.242;10.280;2023-03-18T01:59:52;100541.59;;;7.17;100.00
62418;BME280;48456;54.242;10.280;2023-03-18T02:02:20;100535.47;;;7.13;100.00
62418;BME280;48456;54.242;10.280;2023-03-18T02:04:48;100530.19;;;7.13;100.00
62418;BME280;48456;54.242;10.280;2023-03-18T02:07:16;100536.34;;;7.12;100.00
62418;BME280;48456;54.242;10.280;2023-03-18T02:09:43;100533.75;;;7.20;100.00
62418;BME280;48456;54.242;10.280;2023-03-18T02:12:11;100539.91;;;7.27;100.00
62418;BME280;48456;54.242;10.280;2023-03-18T02:14:38;100540.88;;;7.41;100.00
62418;BME280;48456;54.242;10.280;2023-03-18T02:17:07;100547.91;;;7.52;100.00
62418;BME280;48456;54.242;10.280;2023-03-18T02:24:48;100547.13;;;7.72;100.00
62418;BME280;48456;54.242;10.280;2023-03-18T02:29:43;100535.72;;;7.77;100.00
62418;BME280;48456;54.242;10.280;2023-03-18T02:32:10;100537.50;;;7.78;100.00
62418;BME280;48456;54.242;10.280;2023-03-18T02:34:37;100534.84;;;7.77;100.00
62418;BME280;48456;54.242;10.280;2023-03-18T02:37:06;100543.63;;;7.79;100.00
62418;BME280;48456;54.242;10.280;2023-03-18T02:39:33;100533.09;;;7.79;100.00
62418;BME280;48456;54.242;10.280;2023-03-18T02:42:00;100542.78;;;7.80;100.00
62418;BME280;48456;54.242;10.280;2023-03-18T02:44:27;100535.75;;;7.82;100.00
62418;BME280;48456;54.242;10.280;2023-03-18T02:47:01;100542.75;;;7.83;100.00
62418;BME280;48456;54.242;10.280;2023-03-18T02:49:29;100544.53;;;7.87;100.00
62418;BME280;48456;54.242;10.280;2023-03-18T02:51:56;100541.91;;;7.89;100.00
62418;BME280;48456;54.242;10.280;2023-03-18T02:54:23;100541.03;;;7.88;100.00
62418;BME280;48456;54.242;10.280;2023-03-18T02:56:50;100545.41;;;7.88;100.00
62418;BME280;48456;54.242;10.280;2023-03-18T02:59:17;100548.91;;;7.85;100.00
62418;BME280;48456;54.242;10.280;2023-03-18T03:01:44;100553.31;;;7.86;100.00
62418;BME280;48456;54.242;10.280;2023-03-18T03:04:12;100548.03;;;7.85;100.00
62418;BME280;48456;54.242;10.280;2023-03-18T03:06:39;100546.28;;;7.85;100.00
62418;BME280;48456;54.242;10.280;2023-03-18T03:09:07;100548.03;;;7.83;100.00
62418;BME280;48456;54.242;10.280;2023-03-18T03:11:34;100546.28;;;7.84;100.00
62418;BME280;48456;54.242;10.280;2023-03-18T03:14:01;100548.91;;;7.85;100.00
62418;BME280;48456;54.242;10.280;2023-03-18T03:16:28;100547.16;;;7.84;100.00
62418;BME280;48456;54.242;10.280;2023-03-18T03:18:54;100553.28;;;7.83;100.00
62418;BME280;48456;54.242;10.280;2023-03-18T03:21:21;100544.53;;;7.81;100.00
62418;BME280;48456;54.242;10.280;2023-03-18T03:23:47;100551.53;;;7.79;100.00
62418;BME280;48456;54.242;10.280;2023-03-18T03:26:14;100550.66;;;7.78;100.00
62418;BME280;48456;54.242;10.280;2023-03-18T03:28:41;100551.53;;;7.76;100.00
62418;BME280;48456;54.242;10.280;2023-03-18T03:31:08;100552.38;;;7.75;100.00
62418;BME280;48456;54.242;10.280;2023-03-18T03:33:39;100552.41;;;7.73;100.00
62418;BME280;48456;54.242;10.280;2023-03-18T03:36:07;100552.41;;;7.72;100.00
62418;BME280;48456;54.242;10.280;2023-03-18T03:38:34;100560.28;;;7.69;100.00
62418;BME280;48456;54.242;10.280;2023-03-18T03:41:00;100557.63;;;7.67;100.00
62418;BME280;48456;54.242;10.280;2023-03-18T03:43:27;100545.34;;;7.63;100.00
62418;BME280;48456;54.242;10.280;2023-03-18T03:45:53;100557.63;;;7.59;100.00
62418;BME280;48456;54.242;10.280;2023-03-18T03:48:20;100555.00;;;7.61;100.00
62418;BME280;48456;54.242;10.280;2023-03-18T03:50:48;100553.22;;;7.61;100.00
62418;BME280;48456;54.242;10.280;2023-03-18T03:53:15;100555.00;;;7.61;100.00
62418;BME280;48456;54.242;10.280;2023-03-18T03:55:41;100556.75;;;7.62;100.00
62418;BME280;48456;54.242;10.280;2023-03-18T03:58:07;100563.78;;;7.66;100.00
62418;BME280;48456;54.242;10.280;2023-03-18T04:00:34;100563.78;;;7.67;100.00
62418;BME280;48456;54.242;10.280;2023-03-18T04:03:00;100556.75;;;7.66;100.00
62418;BME280;48456;54.242;10.280;2023-03-18T04:05:27;100549.72;;;7.67;100.00
62418;BME280;48456;54.242;10.280;2023-03-18T04:07:54;100550.59;;;7.63;100.00
62418;BME280;48456;54.242;10.280;2023-03-18T04:10:25;100549.69;;;7.58;100.00
62418;BME280;48456;54.242;10.280;2023-03-18T04:12:52;100550.56;;;7.58;100.00
62418;BME280;48456;54.242;10.280;2023-03-18T04:15:19;100546.19;;;7.60;100.00
62418;BME280;48456;54.242;10.280;2023-03-18T04:17:49;100558.50;;;7.63;100.00
62418;BME280;48456;54.242;10.280;2023-03-18T04:20:16;100569.94;;;7.65;100.00
62418;BME280;48456;54.242;10.280;2023-03-18T04:22:43;100569.03;;;7.66;100.00
62418;BME280;48456;54.242;10.280;2023-03-18T04:25:10;100569.03;;;7.66;100.00
62418;BME280;48456;54.242;10.280;2023-03-18T04:27:37;100571.66;;;7.64;100.00
62418;BME280;48456;54.242;10.280;2023-03-18T04:30:05;100567.25;;;7.57;100.00
62418;BME280;48456;54.242;10.280;2023-03-18T04:32:33;100568.09;;;7.48;100.00
62418;BME280;48456;54.242;10.280;2023-03-18T04:35:00;100566.28;;;7.41;100.00
62418;BME280;48456;54.242;10.280;2023-03-18T04:37:26;100566.28;;;7.38;100.00
62418;BME280;48456;54.242;10.280;2023-03-18T04:39:53;100572.41;;;7.35;100.00
62418;BME280;48456;54.242;10.280;2023-03-18T04:42:19;100584.69;;;7.33;100.00
62418;BME280;48456;54.242;10.280;2023-03-18T04:44:46;100585.56;;;7.34;100.00
62418;BME280;48456;54.242;10.280;2023-03-18T04:47:12;100562.72;;;7.31;100.00
62418;BME280;48456;54.242;10.280;2023-03-18T04:49:39;100563.63;;;7.32;100.00
62418;BME280;48456;54.242;10.280;2023-03-18T04:52:05;100582.03;;;7.28;100.00
62418;BME280;48456;54.242;10.280;2023-03-18T04:54:32;100576.78;;;7.32;100.00
62418;BME280;48456;54.242;10.280;2023-03-18T04:56:59;100566.25;;;7.30;100.00
62418;BME280;48456;54.242;10.280;2023-03-18T04:59:25;100576.75;;;7.27;100.00
62418;BME280;48456;54.242;10.280;2023-03-18T05:01:51;100563.59;;;7.28;100.00
62418;BME280;48456;54.242;10.280;2023-03-18T05:04:18;100559.22;;;7.29;100.00
62418;BME280;48456;54.242;10.280;2023-03-18T05:06:45;100575.91;;;7.33;100.00
62418;BME280;48456;54.242;10.280;2023-03-18T05:09:11;100565.41;;;7.42;100.00
62418;BME280;48456;54.242;10.280;2023-03-18T05:11:38;100561.94;;;7.46;100.00
62418;BME280;48456;54.242;10.280;2023-03-18T05:14:04;100557.50;;;7.40;100.00
62418;BME280;48456;54.242;10.280;2023-03-18T05:16:31;100547.81;;;7.35;100.00
62418;BME280;48456;54.242;10.280;2023-03-18T05:18:57;100561.00;;;7.32;100.00
62418;BME280;48456;54.242;10.280;2023-03-18T05:21:24;100561.00;;;7.38;100.00
62418;BME280;48456;54.242;10.280;2023-03-18T05:23:50;100563.66;;;7.41;100.00
62418;BME280;48456;54.242;10.280;2023-03-18T05:26:17;100568.97;;;7.44;100.00
62418;BME280;48456;54.242;10.280;2023-03-18T05:28:43;100574.19;;;7.43;100.00
62418;BME280;48456;54.242;10.280;2023-03-18T05:31:10;100577.72;;;7.41;100.00
62418;BME280;48456;54.242;10.280;2023-03-18T05:33:36;100580.34;;;7.46;100.00
62418;BME280;48456;54.242;10.280;2023-03-18T05:36:02;100576.84;;;7.49;100.00
62418;BME280;48456;54.242;10.280;2023-03-18T05:38:29;100582.13;;;7.50;100.00
62418;BME280;48456;54.242;10.280;2023-03-18T05:40:55;100586.53;;;7.50;100.00
62418;BME280;48456;54.242;10.280;2023-03-18T05:43:22;100583.00;;;7.48;100.00
62418;BME280;48456;54.242;10.280;2023-03-18T05:45:49;100576.84;;;7.47;100.00
62418;BME280;48456;54.242;10.280;2023-03-18T05:48:16;100579.47;;;7.44;100.00
62418;BME280;48456;54.242;10.280;2023-03-18T05:50:42;100586.53;;;7.48;100.00
62418;BME280;48456;54.242;10.280;2023-03-18T05:53:09;100586.50;;;7.51;100.00
62418;BME280;48456;54.242;10.280;2023-03-18T05:55:36;100598.81;;;7.56;100.00
62418;BME280;48456;54.242;10.280;2023-03-18T05:58:03;100603.22;;;7.61;100.00
62418;BME280;48456;54.242;10.280;2023-03-18T06:00:29;100598.00;;;7.66;100.00
62418;BME280;48456;54.242;10.280;2023-03-18T06:02:56;100592.75;;;7.69;100.00
62418;BME280;48456;54.242;10.280;2023-03-18T06:05:23;100600.66;;;7.74;100.00
62418;BME280;48456;54.242;10.280;2023-03-18T06:07:51;100611.22;;;7.78;100.00
62418;BME280;48456;54.242;10.280;2023-03-18T06:10:19;100607.72;;;7.81;100.00
62418;BME280;48456;54.242;10.280;2023-03-18T06:12:46;100607.75;;;7.84;100.00
62418;BME280;48456;54.242;10.280;2023-03-18T06:15:12;100611.25;;;7.89;100.00
62418;BME280;48456;54.242;10.280;2023-03-18T06:17:39;100620.94;;;7.92;100.00
62418;BME280;48456;54.242;10.280;2023-03-18T06:20:06;100613.91;;;7.97;100.00
62418;BME280;48456;54.242;10.280;2023-03-18T06:22:34;100616.56;;;7.99;100.00
62418;BME280;48456;54.242;10.280;2023-03-18T06:25:00;100615.69;;;8.04;100.00
62418;BME280;48456;54.242;10.280;2023-03-18T06:27:27;100613.09;;;8.14;100.00
62418;BME280;48456;54.242;10.280;2023-03-18T06:29:53;100612.25;;;8.21;100.00
62418;BME280;48456;54.242;10.280;2023-03-18T06:32:20;100614.00;;;8.27;100.00
62418;BME280;48456;54.242;10.280;2023-03-18T06:34:47;100607.88;;;8.31;100.00
62418;BME280;48456;54.242;10.280;2023-03-18T06:37:14;100611.38;;;8.35;100.00
62418;BME280;48456;54.242;10.280;2023-03-18T06:39:40;100621.91;;;8.41;100.00
62418;BME280;48456;54.242;10.280;2023-03-18T06:42:06;100614.03;;;8.44;100.00
62418;BME280;48456;54.242;10.280;2023-03-18T06:44:33;100617.53;;;8.48;100.00
62418;BME280;48456;54.242;10.280;2023-03-18T06:46:59;100623.72;;;8.51;100.00
62418;BME280;48456;54.242;10.280;2023-03-18T06:49:25;100632.53;;;8.56;100.00
62418;BME280;48456;54.242;10.280;2023-03-18T06:51:52;100637.84;;;8.63;100.00
62418;BME280;48456;54.242;10.280;2023-03-18T06:54:19;100639.56;;;8.68;100.00
62418;BME280;48456;54.242;10.280;2023-03-18T06:56:46;100646.63;;;8.76;100.00
62418;BME280;48456;54.242;10.280;2023-03-18T06:59:12;100636.09;;;8.82;100.00
62418;BME280;48456;54.242;10.280;2023-03-18T07:01:39;100640.47;;;8.89;100.00
62418;BME280;48456;54.242;10.280;2023-03-18T07:04:06;100644.88;;;8.95;100.00
62418;BME280;48456;54.242;10.280;2023-03-18T07:06:33;100639.59;;;9.01;100.00
62418;BME280;48456;54.242;10.280;2023-03-18T07:08:59;100639.56;;;9.06;100.00
62418;BME280;48456;54.242;10.280;2023-03-18T07:11:26;100640.47;;;9.09;100.00
62418;BME280;48456;54.242;10.280;2023-03-18T07:13:52;100649.25;;;9.13;100.00
62418;BME280;48456;54.242;10.280;2023-03-18T07:16:19;100649.22;;;9.18;100.00
62418;BME280;48456;54.242;10.280;2023-03-18T07:18:45;100653.63;;;9.23;100.00
62418;BME280;48456;54.242;10.280;2023-03-18T07:21:11;100657.13;;;9.30;100.00
62418;BME280;48456;54.242;10.280;2023-03-18T07:23:38;100658.00;;;9.42;100.00
62418;BME280;48456;54.242;10.280;2023-03-18T07:26:06;100662.41;;;9.51;100.00
62418;BME280;48456;54.242;10.280;2023-03-18T07:28:32;100669.41;;;9.64;100.00
62418;BME280;48456;54.242;10.280;2023-03-18T07:30:58;100663.22;;;9.76;100.00
62418;BME280;48456;54.242;10.280;2023-03-18T07:33:26;100676.38;;;9.93;100.00
62418;BME280;48456;54.242;10.280;2023-03-18T07:35:52;100682.47;;;10.03;100.00
62418;BME280;48456;54.242;10.280;2023-03-18T07:38:19;100685.13;;;10.05;100.00
62418;BME280;48456;54.242;10.280;2023-03-18T07:40:45;100681.63;;;9.99;100.00
62418;BME280;48456;54.242;10.280;2023-03-18T07:43:12;100687.84;;;9.89;100.00
62418;BME280;48456;54.242;10.280;2023-03-18T07:45:38;100691.38;;;9.86;100.00
62418;BME280;48456;54.242;10.280;2023-03-18T07:48:04;100685.19;;;9.86;100.00
62418;BME280;48456;54.242;10.280;2023-03-18T07:50:31;100687.84;;;9.87;100.00
62418;BME280;48456;54.242;10.280;2023-03-18T07:52:57;100701.00;;;9.95;100.00
62418;BME280;48456;54.242;10.280;2023-03-18T07:55:24;100697.47;;;9.96;100.00
62418;BME280;48456;54.242;10.280;2023-03-18T07:57:51;100703.63;;;10.03;100.00
62418;BME280;48456;54.242;10.280;2023-03-18T08:00:17;100693.91;;;10.14;100.00
62418;BME280;48456;54.242;10.280;2023-03-18T08:02:44;100689.47;;;10.20;100.00
62418;BME280;48456;54.242;10.280;2023-03-18T08:05:10;100696.53;;;10.16;100.00
62418;BME280;48456;54.242;10.280;2023-03-18T08:07:38;100688.59;;;10.21;100.00
62418;BME280;48456;54.242;10.280;2023-03-18T08:10:05;100694.75;;;10.24;100.00
62418;BME280;48456;54.242;10.280;2023-03-18T08:12:31;100698.25;;;10.26;100.00
62418;BME280;48456;54.242;10.280;2023-03-18T08:15:14;100712.34;;;10.30;100.00
62418;BME280;48456;54.242;10.280;2023-03-18T08:17:41;100708.78;;;10.37;100.00
62418;BME280;48456;54.242;10.280;2023-03-18T08:20:07;100707.84;;;10.43;100.00
62418;BME280;48456;54.242;10.280;2023-03-18T08:22:34;100705.22;;;10.49;100.00
62418;BME280;48456;54.242;10.280;2023-03-18T08:25:01;100701.63;;;10.58;100.00
62418;BME280;48456;54.242;10.280;2023-03-18T08:27:27;100697.16;;;10.73;100.00
62418;BME280;48456;54.242;10.280;2023-03-18T08:29:53;100706.75;;;10.85;100.00
62418;BME280;48456;54.242;10.280;2023-03-18T08:32:20;100700.47;;;11.04;100.00
62418;BME280;48456;54.242;10.280;2023-03-18T08:34:47;100703.81;;;11.25;100.00
62418;BME280;48456;54.242;10.280;2023-03-18T08:37:13;100698.34;;;11.46;100.00
62418;BME280;48456;54.242;10.280;2023-03-18T08:39:39;100711.53;;;11.50;100.00
62418;BME280;48456;54.242;10.280;2023-03-18T08:42:09;100718.50;;;11.57;100.00
62418;BME280;48456;54.242;10.280;2023-03-18T08:44:36;100721.06;;;11.67;100.00
62418;BME280;48456;54.242;10.280;2023-03-18T08:47:02;100722.75;;;11.76;100.00
62418;BME280;48456;54.242;10.280;2023-03-18T08:49:28;100719.09;;;11.88;100.00
62418;BME280;48456;54.242;10.280;2023-03-18T08:51:55;100720.88;;;11.89;100.00
62418;BME280;48456;54.242;10.280;2023-03-18T08:54:21;100719.97;;;11.90;100.00
62418;BME280;48456;54.242;10.280;2023-03-18T08:56:48;100733.38;;;11.74;100.00
62418;BME280;48456;54.242;10.280;2023-03-18T08:59:14;100738.63;;;11.79;100.00
62418;BME280;48456;54.242;10.280;2023-03-18T09:01:40;100737.72;;;11.81;100.00
62418;BME280;48456;54.242;10.280;2023-03-18T09:04:07;100750.97;;;11.80;100.00
62418;BME280;48456;54.242;10.280;2023-03-18T09:06:33;100750.16;;;11.76;100.00
62418;BME280;48456;54.242;10.280;2023-03-18T09:09:00;100753.72;;;11.74;100.00
62418;BME280;48456;54.242;10.280;2023-03-18T09:11:26;100762.50;;;11.74;100.00
62418;BME280;48456;54.242;10.280;2023-03-18T09:13:53;100751.13;;;11.64;100.00
62418;BME280;48456;54.242;10.280;2023-03-18T09:16:19;100764.38;;;11.64;100.00
62418;BME280;48456;54.242;10.280;2023-03-18T09:18:46;100769.66;;;11.66;100.00
62418;BME280;48456;54.242;10.280;2023-03-18T09:21:14;100771.50;;;11.57;100.00
62418;BME280;48456;54.242;10.280;2023-03-18T09:23:40;100775.06;;;11.55;100.00
62418;BME280;48456;54.242;10.280;2023-03-18T09:26:06;100777.78;;;11.50;100.00
62418;BME280;48456;54.242;10.280;2023-03-18T09:28:33;100779.56;;;11.43;100.00
62418;BME280;48456;54.242;10.280;2023-03-18T09:30:59;100781.34;;;11.43;100.00
62418;BME280;48456;54.242;10.280;2023-03-18T09:33:26;100775.13;;;11.49;100.00
62418;BME280;48456;54.242;10.280;2023-03-18T09:35:53;100780.44;;;11.46;100.00
62418;BME280;48456;54.242;10.280;2023-03-18T09:38:19;100784.84;;;11.48;100.00
62418;BME280;48456;54.242;10.280;2023-03-18T09:40:50;100783.91;;;11.55;100.00
62418;BME280;48456;54.242;10.280;2023-03-18T09:46:00;100785.56;;;11.63;100.00
62418;BME280;48456;54.242;10.280;2023-03-18T09:53:50;100789.47;;;12.20;100.00
62418;BME280;48456;54.242;10.280;2023-03-18T09:56:20;100788.28;;;12.46;100.00
62418;BME280;48456;54.242;10.280;2023-03-18T09:59:05;100790.03;;;12.47;100.00
62418;BME280;48456;54.242;10.280;2023-03-18T10:01:40;100798.00;;;12.47;100.00
62418;BME280;48456;54.242;10.280;2023-03-18T10:04:25;100795.47;;;12.36;100.00
62418;BME280;48456;54.242;10.280;2023-03-18T10:06:54;100801.72;;;12.30;100.00
62418;BME280;48456;54.242;10.280;2023-03-18T10:11:50;100807.91;;;12.32;100.00
62418;BME280;48456;54.242;10.280;2023-03-18T10:19:51;100812.13;;;12.51;100.00
62418;BME280;48456;54.242;10.280;2023-03-18T10:30:05;;;;12.39;
62418;BME280;48456;54.242;10.280;2023-03-18T10:38:01;100819.97;;;12.58;100.00
62418;BME280;48456;54.242;10.280;2023-03-18T10:40:28;100828.81;;;12.59;100.00
62418;BME280;48456;54.242;10.280;2023-03-18T10:42:58;100830.75;;;12.44;100.00
62418;BME280;48456;54.242;10.280;2023-03-18T10:45:26;100831.63;;;12.45;100.00
62418;BME280;48456;54.242;10.280;2023-03-18T10:48:01;100843.31;;;12.30;100.00
62418;BME280;48456;54.242;10.280;2023-03-18T10:50:34;100852.31;;;12.15;100.00
62418;BME280;48456;54.242;10.280;2023-03-18T10:53:04;100833.69;;;12.18;100.00
62418;BME280;48456;54.242;10.280;2023-03-18T10:55:34;100835.28;;;12.34;100.00
62418;BME280;48456;54.242;10.280;2023-03-18T10:58:15;100830.84;;;12.38;100.00
62418;BME280;48456;54.242;10.280;2023-03-18T11:00:42;100838.69;;;12.46;100.00
62418;BME280;48456;54.242;10.280;2023-03-18T11:05:46;100820.78;;;12.64;100.00
62418;BME280;48456;54.242;10.280;2023-03-18T11:08:32;100827.75;;;12.74;100.00
62418;BME280;48456;54.242;10.280;2023-03-18T11:11:19;100823.84;;;13.02;100.00
62418;BME280;48456;54.242;10.280;2023-03-18T11:13:48;100827.19;;;13.15;100.00
62418;BME280;48456;54.242;10.280;2023-03-18T11:16:26;100825.16;;;13.31;100.00
62418;BME280;48456;54.242;10.280;2023-03-18T11:18:55;100829.66;;;13.29;100.00
62418;BME280;48456;54.242;10.280;2023-03-18T11:21:25;100834.34;;;13.11;100.00
62418;BME280;48456;54.242;10.280;2023-03-18T11:23:57;100830.38;;;13.40;100.00
62418;BME280;48456;54.242;10.280;2023-03-18T11:26:52;100821.41;;;13.46;100.00
62418;BME280;48456;54.242;10.280;2023-03-18T11:29:20;100838.09;;;13.56;100.00
62418;BME280;48456;54.242;10.280;2023-03-18T11:31:56;100838.03;;;13.62;100.00
62418;BME280;48456;54.242;10.280;2023-03-18T11:34:32;100841.63;;;13.59;100.00
62418;BME280;48456;54.242;10.280;2023-03-18T11:37:01;100843.56;;;13.45;100.00
62418;BME280;48456;54.242;10.280;2023-03-18T11:39:30;100849.97;;;13.31;100.00
62418;BME280;48456;54.242;10.280;2023-03-18T11:41:58;100844.97;;;13.09;100.00
62418;BME280;48456;54.242;10.280;2023-03-18T11:44:29;100848.28;;;13.25;100.00
62418;BME280;48456;54.242;10.280;2023-03-18T11:47:04;100848.13;;;13.36;100.00
62418;BME280;48456;54.242;10.280;2023-03-18T11:49:32;100853.47;;;14.40;100.00
62418;BME280;48456;54.242;10.280;2023-03-18T11:52:02;100851.75;;;14.82;100.00
62418;BME280;48456;54.242;10.280;2023-03-18T12:04:51;100868.34;;;13.47;100.00
62418;BME280;48456;54.242;10.280;2023-03-18T12:09:50;100864.94;;;13.37;100.00
62418;BME280;48456;54.242;10.280;2023-03-18T12:12:27;100865.59;;;13.53;100.00
62418;BME280;48456;54.242;10.280;2023-03-18T12:22:43;100876.69;;;16.31;100.00
62418;BME280;48456;54.242;10.280;2023-03-18T12:25:28;100866.69;;;17.01;100.00
62418;BME280;48456;54.242;10.280;2023-03-18T12:30:32;100859.44;;;17.64;100.00
62418;BME280;48456;54.242;10.280;2023-03-18T12:38:10;100892.03;;;16.23;100.00
62418;BME280;48456;54.242;10.280;2023-03-18T12:41:00;100897.88;;;15.27;100.00
62418;BME280;48456;54.242;10.280;2023-03-18T12:46:18;100896.88;;;14.91;100.00
62418;BME280;48456;54.242;10.280;2023-03-18T12:48:51;100894.53;;;14.73;100.00
62418;BME280;48456;54.242;10.280;2023-03-18T12:51:23;100906.19;;;15.11;100.00
62418;BME280;48456;54.242;10.280;2023-03-18T12:53:54;100897.94;;;15.24;100.00
62418;BME280;48456;54.242;10.280;2023-03-18T12:56:23;100896.75;;;14.96;100.00
62418;BME280;48456;54.242;10.280;2023-03-18T12:59:35;100899.00;;;14.25;100.00
62418;BME280;48456;54.242;10.280;2023-03-18T13:01:52;100889.56;;;14.07;100.00
62418;BME280;48456;54.242;10.280;2023-03-18T13:04:22;100901.13;;;14.04;100.00
62418;BME280;48456;54.242;10.280;2023-03-18T13:16:54;100918.44;;;13.75;100.00
62418;BME280;48456;54.242;10.280;2023-03-18T13:19:21;100908.56;;;13.82;100.00
62418;BME280;48456;54.242;10.280;2023-03-18T13:21:51;100907.41;;;13.98;100.00
62418;BME280;48456;54.242;10.280;2023-03-18T13:37:28;100920.44;;;15.10;100.00
62418;BME280;48456;54.242;10.280;2023-03-18T13:42:45;100919.44;;;15.16;100.00
62418;BME280;48456;54.242;10.280;2023-03-18T13:45:26;100919.31;;;14.78;100.00
62418;BME280;48456;54.242;10.280;2023-03-18T13:48:00;100926.31;;;14.35;100.00
62418;BME280;48456;54.242;10.280;2023-03-18T13:50:32;100935.09;;;14.38;100.00
62418;BME280;48456;54.242;10.280;2023-03-18T13:52:59;100933.56;;;14.74;100.00
62418;BME280;48456;54.242;10.280;2023-03-18T14:00:36;100928.72;;;15.37;100.00
62418;BME280;48456;54.242;10.280;2023-03-18T14:03:04;100926.69;;;15.87;100.00
62418;BME280;48456;54.242;10.280;2023-03-18T14:05:32;100921.63;;;16.14;100.00
62418;BME280;48456;54.242;10.280;2023-03-18T14:08:03;100928.78;;;15.75;100.00
62418;BME280;48456;54.242;10.280;2023-03-18T14:10:30;100934.03;;;15.39;100.00
62418;BME280;48456;54.242;10.280;2023-03-18T14:13:01;100924.41;;;15.31;100.00
62418;BME280;48456;54.242;10.280;2023-03-18T14:15:43;100933.34;;;15.29;100.00
62418;BME280;48456;54.242;10.280;2023-03-18T14:18:17;100925.19;;;15.38;100.00
62418;BME280;48456;54.242;10.280;2023-03-18T14:20:43;100930.00;;;15.60;100.00
62418;BME280;48456;54.242;10.280;2023-03-18T14:25:48;100930.78;;;15.65;100.00